sensor_id;sensor_type;location;lat;lon;timestamp;temperature;humidity
12223;DHT22;6174;49.058;8.524;2023-11-19T07:00:37;13.20;99.90
12223;DHT22;6174;49.058;8.524;2023-11-19T07:03:03;13.20;99.90
12223;DHT22;6174;49.058;8.524;2023-11-19T07:05:31;13.30;99.90
12223;DHT22;6174;49.058;8.524;2023-11-19T07:07:58;13.30;99.90
12223;DHT22;6174;49.058;8.524;2023-11-19T07:10:26;13.30;99.90
12223;DHT22;6174;49.058;8.524;2023-11-19T07:12:55;13.20;99.90
12223;DHT22;6174;49.058;8.524;2023-11-19T07:15:23;13.20;99.90
12223;DHT22;6174;49.058;8.524;2023-11-19T07:17:51;13.30;99.90
12223;DHT22;6174;49.058;8.524;2023-11-19T07:20:19;13.30;99.90
12223;DHT22;6174;49.058;8.524;2023-11-19T07:22:46;13.20;99.90
12223;DHT22;6174;49.058;8.524;2023-11-19T07:25:14;13.20;99.90
12223;DHT22;6174;49.058;8.524;2023-11-19T07:27:41;13.20;99.90
12223;DHT22;6174;49.058;8.524;2023-11-19T07:30:08;13.20;99.90
12223;DHT22;6174;49.058;8.524;2023-11-19T07:32:35;13.20;99.90
12223;DHT22;6174;49.058;8.524;2023-11-19T07:35:06;13.10;99.90
12223;DHT22;6174;49.058;8.524;2023-11-19T07:37:36;13.10;99.90
12223;DHT22;6174;49.058;8.524;2023-11-19T07:43:23;13.10;99.90
12223;DHT22;6174;49.058;8.524;2023-11-19T07:45:51;13.10;99.90
12223;DHT22;6174;49.058;8.524;2023-11-19T07:48:20;13.00;99.90
12223;DHT22;6174;49.058;8.524;2023-11-19T07:50:53;13.10;99.90
12223;DHT22;6174;49.058;8.524;2023-11-19T07:53:22;13.30;99.90
12223;DHT22;6174;49.058;8.524;2023-11-19T07:55:50;13.20;99.90
12223;DHT22;6174;49.058;8.524;2023-11-19T07:58:17;13.20;99.90
12223;DHT22;6174;49.058;8.524;2023-11-19T08:00:44;13.30;99.90
12223;DHT22;6174;49.058;8.524;2023-11-19T08:03:10;13.40;99.90
12223;DHT22;6174;49.058;8.524;2023-11-19T08:05:37;13.40;99.90
12223;DHT22;6174;49.058;8.524;2023-11-19T08:08:06;13.40;99.90
12223;DHT22;6174;49.058;8.524;2023-11-19T08:10:35;13.40;99.90
12223;DHT22;6174;49.058;8.524;2023-11-19T08:13:05;13.50;99.90
12223;DHT22;6174;49.058;8.524;2023-11-19T08:15:33;13.50;99.90
12223;DHT22;6174;49.058;8.524;2023-11-19T08:18:37;13.50;99.90
12223;DHT22;6174;49.058;8.524;2023-11-19T08:21:24;13.50;99.90
12223;DHT22;6174;49.058;8.524;2023-11-19T08:27:39;13.40;99.90
12223;DHT22;6174;49.058;8.524;2023-11-19T08:30:40;13.40;99.90
12223;DHT22;6174;49.058;8.524;2023-11-19T08:33:41;13.40;99.90
12223;DHT22;6174;49.058;8.524;2023-11-19T08:36:17;13.50;99.90
12223;DHT22;6174;49.058;8.524;2023-11-19T08:38:44;13.40;99.90
12223;DHT22;6174;49.058;8.524;2023-11-19T08:41:21;13.60;99.90
12223;DHT22;6174;49.058;8.524;2023-11-19T08:43:49;13.60;99.90
12223;DHT22;6174;49.058;8.524;2023-11-19T08:46:17;13.60;99.90
12223;DHT22;6174;49.058;8.524;2023-11-19T08:48:44;13.70;99.90
12223;DHT22;6174;49.058;8.524;2023-11-19T08:51:11;13.70;99.90
12223;DHT22;6174;49.058;8.524;2023-11-19T08:53:38;13.70;99.90
12223;DHT22;6174;49.058;8.524;2023-11-19T08:56:06;13.80;99.90
12223;DHT22;6174;49.058;8.524;2023-11-19T08:58:37;13.80;99.90
12223;DHT22;6174;49.058;8.524;2023-11-19T09:01:05;13.90;99.90
12223;DHT22;6174;49.058;8.524;2023-11-19T09:03:32;13.80;99.90
12223;DHT22;6174;49.058;8.524;2023-11-19T09:06:00;13.90;99.90
12223;DHT22;6174;49.058;8.524;2023-11-19T09:08:27;13.90;99.90
12223;DHT22;6174;49.058;8.524;2023-11-19T09:10:54;13.90;99.90
12223;DHT22;6174;49.058;8.524;2023-11-19T09:13:23;14.00;99.90
12223;DHT22;6174;49.058;8.524;2023-11-19T09:15:50;13.90;99.90
12223;DHT22;6174;49.058;8.524;2023-11-19T09:18:20;14.00;99.90
12223;DHT22;6174;49.058;8.524;2023-11-19T09:20:47;14.00;99.90
12223;DHT22;6174;49.058;8.524;2023-11-19T09:23:14;14.00;99.90
12223;DHT22;6174;49.058;8.524;2023-11-19T09:25:40;14.00;99.90
12223;DHT22;6174;49.058;8.524;2023-11-19T09:28:07;14.00;99.90
12223;DHT22;6174;49.058;8.524;2023-11-19T09:30:35;14.00;99.90
12223;DHT22;6174;49.058;8.524;2023-11-19T09:33:01;14.00;99.90
12223;DHT22;6174;49.058;8.524;2023-11-19T09:35:29;14.10;99.90
12223;DHT22;6174;49.058;8.524;2023-11-19T09:37:56;14.00;99.90
12223;DHT22;6174;49.058;8.524;2023-11-19T09:40:27;14.00;99.90
12223;DHT22;6174;49.058;8.524;2023-11-19T09:42:57;14.10;99.90
12223;DHT22;6174;49.058;8.524;2023-11-19T09:45:26;14.00;99.90
12223;DHT22;6174;49.058;8.524;2023-11-19T09:47:55;14.00;99.90
12223;DHT22;6174;49.058;8.524;2023-11-19T09:50:23;14.10;99.90
12223;DHT22;6174;49.058;8.524;2023-11-19T09:52:51;14.00;99.90
12223;DHT22;6174;49.058;8.524;2023-11-19T09:55:18;14.10;99.90
12223;DHT22;6174;49.058;8.524;2023-11-19T09:57:47;14.10;99.90
12223;DHT22;6174;49.058;8.524;2023-11-19T10:00:15;14.20;99.90
12223;DHT22;6174;49.058;8.524;2023-11-19T10:02:44;14.20;99.90
12223;DHT22;6174;49.058;8.524;2023-11-19T10:05:14;14.20;99.90
12223;DHT22;6174;49.058;8.524;2023-11-19T10:07:41;14.30;99.90
12223;DHT22;6174;49.058;8.524;2023-11-19T10:10:10;14.30;99.90
12223;DHT22;6174;49.058;8.524;2023-11-19T10:12:40;14.40;99.90
12223;DHT22;6174;49.058;8.524;2023-11-19T10:15:13;14.20;99.90
12223;DHT22;6174;49.058;8.524;2023-11-19T10:17:44;14.40;99.90
12223;DHT22;6174;49.058;8.524;2023-11-19T10:20:11;14.50;99.90
12223;DHT22;6174;49.058;8.524;2023-11-19T10:22:38;14.50;99.90
12223;DHT22;6174;49.058;8.524;2023-11-19T10:25:23;14.50;99.90
12223;DHT22;6174;49.058;8.524;2023-11-19T10:27:50;14.50;99.90
12223;DHT22;6174;49.058;8.524;2023-11-19T10:30:18;14.60;99.90
12223;DHT22;6174;49.058;8.524;2023-11-19T10:33:04;14.60;99.90
12223;DHT22;6174;49.058;8.524;2023-11-19T10:35:32;14.70;99.90
12223;DHT22;6174;49.058;8.524;2023-11-19T10:38:00;14.70;99.90
12223;DHT22;6174;49.058;8.524;2023-11-19T10:40:41;14.80;99.90
12223;DHT22;6174;49.058;8.524;2023-11-19T10:43:08;14.80;99.90
12223;DHT22;6174;49.058;8.524;2023-11-19T10:45:35;14.80;99.90
12223;DHT22;6174;49.058;8.524;2023-11-19T10:48:03;14.90;99.90
12223;DHT22;6174;49.058;8.524;2023-11-19T10:50:32;15.00;99.90
12223;DHT22;6174;49.058;8.524;2023-11-19T10:52:59;15.00;99.90
12223;DHT22;6174;49.058;8.524;2023-11-19T10:55:28;15.10;99.90
12223;DHT22;6174;49.058;8.524;2023-11-19T10:57:59;15.20;99.90
12223;DHT22;6174;49.058;8.524;2023-11-19T11:00:27;15.10;99.90
12223;DHT22;6174;49.058;8.524;2023-11-19T11:03:00;15.20;99.90
12223;DHT22;6174;49.058;8.524;2023-11-19T11:05:29;15.10;99.90
12223;DHT22;6174;49.058;8.524;2023-11-19T11:07:57;15.20;99.90
12223;DHT22;6174;49.058;8.524;2023-11-19T11:10:26;15.10;99.90
12223;DHT22;6174;49.058;8.524;2023-11-19T11:13:01;15.10;99.90
12223;DHT22;6174;49.058;8.524;2023-11-19T11:15:30;15.10;99.90
12223;DHT22;6174;49.058;8.524;2023-11-19T11:18:08;15.10;99.90
12223;DHT22;6174;49.058;8.524;2023-11-19T11:20:35;15.10;99.90
12223;DHT22;6174;49.058;8.524;2023-11-19T11:23:37;15.00;99.90
12223;DHT22;6174;49.058;8.524;2023-11-19T11:26:23;15.30;99.90
12223;DHT22;6174;49.058;8.524;2023-11-19T11:28:58;15.10;99.90
12223;DHT22;6174;49.058;8.524;2023-11-19T11:31:34;15.00;99.90
12223;DHT22;6174;49.058;8.524;2023-11-19T11:34:16;15.00;99.90
12223;DHT22;6174;49.058;8.524;2023-11-19T11:36:53;15.00;99.90
12223;DHT22;6174;49.058;8.524;2023-11-19T11:39:22;14.90;99.90
12223;DHT22;6174;49.058;8.524;2023-11-19T11:45:02;14.90;99.90
12223;DHT22;6174;49.058;8.524;2023-11-19T11:48:10;15.00;99.90
12223;DHT22;6174;49.058;8.524;2023-11-19T11:50:55;15.00;99.90
12223;DHT22;6174;49.058;8.524;2023-11-19T11:53:23;15.00;99.90
12223;DHT22;6174;49.058;8.524;2023-11-19T11:55:55;15.40;99.90
12223;DHT22;6174;49.058;8.524;2023-11-19T11:58:27;15.30;99.90
12223;DHT22;6174;49.058;8.524;2023-11-19T12:01:00;15.50;99.90
12223;DHT22;6174;49.058;8.524;2023-11-19T12:03:28;16.30;99.90
12223;DHT22;6174;49.058;8.524;2023-11-19T12:05:56;16.00;99.90
12223;DHT22;6174;49.058;8.524;2023-11-19T12:08:26;15.80;99.90
12223;DHT22;6174;49.058;8.524;2023-11-19T12:10:54;16.10;99.90
12223;DHT22;6174;49.058;8.524;2023-11-19T12:13:55;16.00;99.90
12223;DHT22;6174;49.058;8.524;2023-11-19T12:16:25;15.90;99.90
12223;DHT22;6174;49.058;8.524;2023-11-19T12:18:54;16.00;99.90
12223;DHT22;6174;49.058;8.524;2023-11-19T12:21:30;16.00;99.90
12223;DHT22;6174;49.058;8.524;2023-11-19T12:23:58;16.10;99.90
12223;DHT22;6174;49.058;8.524;2023-11-19T12:26:37;16.40;99.90
12223;DHT22;6174;49.058;8.524;2023-11-19T12:29:06;16.00;99.90
12223;DHT22;6174;49.058;8.524;2023-11-19T12:31:35;16.00;99.90
12223;DHT22;6174;49.058;8.524;2023-11-19T12:34:08;16.00;99.90
12223;DHT22;6174;49.058;8.524;2023-11-19T12:36:38;16.10;99.90
12223;DHT22;6174;49.058;8.524;2023-11-19T12:39:06;16.10;99.90
12223;DHT22;6174;49.058;8.524;2023-11-19T12:41:49;16.10;99.90
12223;DHT22;6174;49.058;8.524;2023-11-19T12:44:16;16.00;99.90
12223;DHT22;6174;49.058;8.524;2023-11-19T12:46:44;15.90;99.90
12223;DHT22;6174;49.058;8.524;2023-11-19T12:49:11;15.80;99.90
12223;DHT22;6174;49.058;8.524;2023-11-19T12:51:38;15.70;99.90
12223;DHT22;6174;49.058;8.524;2023-11-19T12:54:05;15.70;99.90
12223;DHT22;6174;49.058;8.524;2023-11-19T12:56:31;15.70;99.90
12223;DHT22;6174;49.058;8.524;2023-11-19T12:59:10;15.70;99.90
12223;DHT22;6174;49.058;8.524;2023-11-19T13:01:39;15.70;99.90
12223;DHT22;6174;49.058;8.524;2023-11-19T13:04:17;15.80;99.90
12223;DHT22;6174;49.058;8.524;2023-11-19T13:06:45;15.80;99.90
12223;DHT22;6174;49.058;8.524;2023-11-19T13:09:22;15.80;99.90
12223;DHT22;6174;49.058;8.524;2023-11-19T13:11:49;16.20;99.90
12223;DHT22;6174;49.058;8.524;2023-11-19T13:14:16;15.70;99.90
12223;DHT22;6174;49.058;8.524;2023-11-19T13:16:43;15.80;99.90
12223;DHT22;6174;49.058;8.524;2023-11-19T13:19:11;15.80;99.90
12223;DHT22;6174;49.058;8.524;2023-11-19T13:21:42;16.10;99.90
12223;DHT22;6174;49.058;8.524;2023-11-19T13:24:11;15.70;99.90
12223;DHT22;6174;49.058;8.524;2023-11-19T13:26:38;15.70;99.90
12223;DHT22;6174;49.058;8.524;2023-11-19T13:29:07;15.70;99.90
12223;DHT22;6174;49.058;8.524;2023-11-19T13:31:37;15.80;99.90
12223;DHT22;6174;49.058;8.524;2023-11-19T13:34:04;15.70;99.90
12223;DHT22;6174;49.058;8.524;2023-11-19T13:36:34;15.90;99.90
12223;DHT22;6174;49.058;8.524;2023-11-19T13:39:02;16.00;99.90
12223;DHT22;6174;49.058;8.524;2023-11-19T13:41:32;16.10;99.90
12223;DHT22;6174;49.058;8.524;2023-11-19T13:44:02;16.30;99.90
12223;DHT22;6174;49.058;8.524;2023-11-19T13:46:34;16.40;99.90
12223;DHT22;6174;49.058;8.524;2023-11-19T13:49:01;16.40;99.90
12223;DHT22;6174;49.058;8.524;2023-11-19T13:51:29;16.40;99.90
12223;DHT22;6174;49.058;8.524;2023-11-19T13:54:03;16.40;99.90
12223;DHT22;6174;49.058;8.524;2023-11-19T13:56:40;16.40;99.90
12223;DHT22;6174;49.058;8.524;2023-11-19T13:59:14;16.40;99.90
12223;DHT22;6174;49.058;8.524;2023-11-19T14:01:43;16.40;99.90
12223;DHT22;6174;49.058;8.524;2023-11-19T14:04:12;16.40;99.90
12223;DHT22;6174;49.058;8.524;2023-11-19T14:06:39;16.40;99.90
12223;DHT22;6174;49.058;8.524;2023-11-19T14:09:10;16.40;99.90
12223;DHT22;6174;49.058;8.524;2023-11-19T14:11:38;16.40;99.90
12223;DHT22;6174;49.058;8.524;2023-11-19T14:14:19;16.20;99.90
12223;DHT22;6174;49.058;8.524;2023-11-19T14:17:00;16.20;99.90
12223;DHT22;6174;49.058;8.524;2023-11-19T14:19:30;16.20;99.90
12223;DHT22;6174;49.058;8.524;2023-11-19T14:21:57;16.00;99.90
12223;DHT22;6174;49.058;8.524;2023-11-19T14:24:29;16.00;99.90
12223;DHT22;6174;49.058;8.524;2023-11-19T14:27:03;16.00;99.90
12223;DHT22;6174;49.058;8.524;2023-11-19T14:29:29;15.80;99.90
12223;DHT22;6174;49.058;8.524;2023-11-19T14:31:56;15.80;99.90
12223;DHT22;6174;49.058;8.524;2023-11-19T14:34:25;15.70;99.90
12223;DHT22;6174;49.058;8.524;2023-11-19T14:36:52;15.60;99.90
12223;DHT22;6174;49.058;8.524;2023-11-19T14:39:20;15.60;99.90
12223;DHT22;6174;49.058;8.524;2023-11-19T14:41:49;15.50;99.90
12223;DHT22;6174;49.058;8.524;2023-11-19T14:44:17;15.80;99.90
12223;DHT22;6174;49.058;8.524;2023-11-19T14:46:48;15.60;99.90
12223;DHT22;6174;49.058;8.524;2023-11-19T14:49:15;15.40;99.90
12223;DHT22;6174;49.058;8.524;2023-11-19T14:51:43;15.40;99.90
12223;DHT22;6174;49.058;8.524;2023-11-19T14:54:16;15.40;99.90
12223;DHT22;6174;49.058;8.524;2023-11-19T14:56:47;15.60;99.90
12223;DHT22;6174;49.058;8.524;2023-11-19T14:59:17;15.50;99.90
12223;DHT22;6174;49.058;8.524;2023-11-19T15:02:13;15.60;99.90
12223;DHT22;6174;49.058;8.524;2023-11-19T15:04:41;15.40;99.90
12223;DHT22;6174;49.058;8.524;2023-11-19T15:07:21;15.50;99.90
12223;DHT22;6174;49.058;8.524;2023-11-19T15:09:50;15.50;99.90
12223;DHT22;6174;49.058;8.524;2023-11-19T15:12:22;15.80;99.90
12223;DHT22;6174;49.058;8.524;2023-11-19T15:14:54;15.80;99.90
12223;DHT22;6174;49.058;8.524;2023-11-19T15:17:21;15.50;99.90
12223;DHT22;6174;49.058;8.524;2023-11-19T15:19:54;15.60;99.90
12223;DHT22;6174;49.058;8.524;2023-11-19T15:22:24;15.40;99.90
12223;DHT22;6174;49.058;8.524;2023-11-19T15:24:54;15.40;99.90
12223;DHT22;6174;49.058;8.524;2023-11-19T15:27:29;15.40;99.90
12223;DHT22;6174;49.058;8.524;2023-11-19T15:29:56;15.40;99.90
12223;DHT22;6174;49.058;8.524;2023-11-19T15:32:28;15.30;99.90
12223;DHT22;6174;49.058;8.524;2023-11-19T15:34:57;15.40;99.90
12223;DHT22;6174;49.058;8.524;2023-11-19T15:37:25;15.10;99.90
12223;DHT22;6174;49.058;8.524;2023-11-19T15:39:52;15.30;99.90
12223;DHT22;6174;49.058;8.524;2023-11-19T15:42:19;15.40;99.90
12223;DHT22;6174;49.058;8.524;2023-11-19T15:44:50;15.50;99.90
12223;DHT22;6174;49.058;8.524;2023-11-19T15:47:17;15.50;99.90
12223;DHT22;6174;49.058;8.524;2023-11-19T15:49:46;15.30;99.90
12223;DHT22;6174;49.058;8.524;2023-11-19T15:52:16;15.40;99.90
12223;DHT22;6174;49.058;8.524;2023-11-19T15:54:43;15.70;99.90
12223;DHT22;6174;49.058;8.524;2023-11-19T15:57:13;15.30;99.90
12223;DHT22;6174;49.058;8.524;2023-11-19T15:59:39;15.10;99.90
12223;DHT22;6174;49.058;8.524;2023-11-19T16:02:08;15.20;99.90
12223;DHT22;6174;49.058;8.524;2023-11-19T16:04:45;15.10;99.90
12223;DHT22;6174;49.058;8.524;2023-11-19T16:07:13;15.10;99.90
12223;DHT22;6174;49.058;8.524;2023-11-19T16:09:40;15.10;99.90
12223;DHT22;6174;49.058;8.524;2023-11-19T16:12:15;15.10;99.90
12223;DHT22;6174;49.058;8.524;2023-11-19T16:14:42;15.00;99.90
12223;DHT22;6174;49.058;8.524;2023-11-19T16:17:10;15.00;99.90
12223;DHT22;6174;49.058;8.524;2023-11-19T16:19:37;15.00;99.90
12223;DHT22;6174;49.058;8.524;2023-11-19T16:22:06;15.00;99.90
12223;DHT22;6174;49.058;8.524;2023-11-19T16:24:36;14.90;99.90
12223;DHT22;6174;49.058;8.524;2023-11-19T16:27:03;14.90;99.90
12223;DHT22;6174;49.058;8.524;2023-11-19T16:29:30;15.00;99.90
12223;DHT22;6174;49.058;8.524;2023-11-19T16:31:57;14.90;99.90
12223;DHT22;6174;49.058;8.524;2023-11-19T16:34:25;14.90;99.90
12223;DHT22;6174;49.058;8.524;2023-11-19T16:36:53;14.90;99.90
12223;DHT22;6174;49.058;8.524;2023-11-19T16:39:20;14.90;99.90
12223;DHT22;6174;49.058;8.524;2023-11-19T16:41:50;14.90;99.90
12223;DHT22;6174;49.058;8.524;2023-11-19T16:44:16;14.90;99.90
12223;DHT22;6174;49.058;8.524;2023-11-19T16:46:43;14.90;99.90
12223;DHT22;6174;49.058;8.524;2023-11-19T16:49:10;15.00;99.90
12223;DHT22;6174;49.058;8.524;2023-11-19T16:51:44;14.90;99.90
12223;DHT22;6174;49.058;8.524;2023-11-19T16:54:11;14.90;99.90
12223;DHT22;6174;49.058;8.524;2023-11-19T16:56:41;14.90;99.90
12223;DHT22;6174;49.058;8.524;2023-11-19T16:59:08;14.90;99.90
12223;DHT22;6174;49.058;8.524;2023-11-19T17:01:35;14.90;99.90
12223;DHT22;6174;49.058;8.524;2023-11-19T17:04:02;14.90;99.90
12223;DHT22;6174;49.058;8.524;2023-11-19T17:06:29;14.90;99.90
12223;DHT22;6174;49.058;8.524;2023-11-19T17:08:58;14.90;99.90
12223;DHT22;6174;49.058;8.524;2023-11-19T17:11:25;14.90;99.90
12223;DHT22;6174;49.058;8.524;2023-11-19T17:13:52;14.90;99.90
12223;DHT22;6174;49.058;8.524;2023-11-19T17:16:19;14.80;99.90
12223;DHT22;6174;49.058;8.524;2023-11-19T17:18:48;14.80;99.90
12223;DHT22;6174;49.058;8.524;2023-11-19T17:21:15;14.80;99.90
12223;DHT22;6174;49.058;8.524;2023-11-19T17:23:45;14.80;99.90
12223;DHT22;6174;49.058;8.524;2023-11-19T17:26:13;14.80;99.90
12223;DHT22;6174;49.058;8.524;2023-11-19T17:28:40;14.80;99.90
12223;DHT22;6174;49.058;8.524;2023-11-19T17:31:07;14.80;99.90
12223;DHT22;6174;49.058;8.524;2023-11-19T17:33:34;14.90;99.90
12223;DHT22;6174;49.058;8.524;2023-11-19T17:36:00;14.70;99.90
12223;DHT22;6174;49.058;8.524;2023-11-19T17:38:27;14.70;99.90
12223;DHT22;6174;49.058;8.524;2023-11-19T17:40:54;14.60;99.90
12223;DHT22;6174;49.058;8.524;2023-11-19T17:43:24;14.60;99.90
12223;DHT22;6174;49.058;8.524;2023-11-19T17:45:52;14.60;99.90
12223;DHT22;6174;49.058;8.524;2023-11-19T17:48:22;14.50;99.90
12223;DHT22;6174;49.058;8.524;2023-11-19T17:50:49;14.50;99.90
12223;DHT22;6174;49.058;8.524;2023-11-19T17:53:15;14.50;99.90
12223;DHT22;6174;49.058;8.524;2023-11-19T17:55:42;14.50;99.90
12223;DHT22;6174;49.058;8.524;2023-11-19T17:58:09;14.50;99.90
12223;DHT22;6174;49.058;8.524;2023-11-19T18:00:38;14.40;99.90
12223;DHT22;6174;49.058;8.524;2023-11-19T18:03:04;14.40;99.90
12223;DHT22;6174;49.058;8.524;2023-11-19T18:05:31;14.40;99.90
12223;DHT22;6174;49.058;8.524;2023-11-19T18:07:58;14.30;99.90
12223;DHT22;6174;49.058;8.524;2023-11-19T18:10:26;14.30;99.90
12223;DHT22;6174;49.058;8.524;2023-11-19T18:12:53;14.20;99.90
12223;DHT22;6174;49.058;8.524;2023-11-19T18:15:21;14.30;99.90
12223;DHT22;6174;49.058;8.524;2023-11-19T18:17:52;14.20;99.90
12223;DHT22;6174;49.058;8.524;2023-11-19T18:20:19;14.20;99.90
12223;DHT22;6174;49.058;8.524;2023-11-19T18:22:46;14.20;99.90
12223;DHT22;6174;49.058;8.524;2023-11-19T18:25:13;14.20;99.90
12223;DHT22;6174;49.058;8.524;2023-11-19T18:27:42;14.20;99.90
12223;DHT22;6174;49.058;8.524;2023-11-19T18:30:10;14.30;99.90
12223;DHT22;6174;49.058;8.524;2023-11-19T18:32:39;14.30;99.90
12223;DHT22;6174;49.058;8.524;2023-11-19T18:35:08;14.30;99.90
12223;DHT22;6174;49.058;8.524;2023-11-19T18:37:37;14.30;99.90
12223;DHT22;6174;49.058;8.524;2023-11-19T18:40:05;14.30;99.90
12223;DHT22;6174;49.058;8.524;2023-11-19T18:42:35;14.20;99.90
12223;DHT22;6174;49.058;8.524;2023-11-19T18:45:02;14.20;99.90
12223;DHT22;6174;49.058;8.524;2023-11-19T18:47:30;14.20;99.90
12223;DHT22;6174;49.058;8.524;2023-11-19T18:49:58;14.20;99.90
12223;DHT22;6174;49.058;8.524;2023-11-19T18:52:27;14.10;99.90
12223;DHT22;6174;49.058;8.524;2023-11-19T18:54:55;14.10;99.90
12223;DHT22;6174;49.058;8.524;2023-11-19T18:57:23;14.10;99.90
12223;DHT22;6174;49.058;8.524;2023-11-19T18:59:50;14.10;99.90
12223;DHT22;6174;49.058;8.524;2023-11-19T19:02:18;14.20;99.90
12223;DHT22;6174;49.058;8.524;2023-11-19T19:04:45;14.10;99.90
12223;DHT22;6174;49.058;8.524;2023-11-19T19:07:12;14.10;99.90
12223;DHT22;6174;49.058;8.524;2023-11-19T19:09:42;14.10;99.90
12223;DHT22;6174;49.058;8.524;2023-11-19T19:12:11;14.10;99.90
12223;DHT22;6174;49.058;8.524;2023-11-19T19:14:37;14.10;99.90
12223;DHT22;6174;49.058;8.524;2023-11-19T19:17:04;14.00;99.90
12223;DHT22;6174;49.058;8.524;2023-11-19T19:19:33;14.00;99.90
12223;DHT22;6174;49.058;8.524;2023-11-19T19:22:00;14.00;99.90
12223;DHT22;6174;49.058;8.524;2023-11-19T19:24:27;14.00;99.90
12223;DHT22;6174;49.058;8.524;2023-11-19T19:26:55;14.00;99.90
12223;DHT22;6174;49.058;8.524;2023-11-19T19:29:23;14.00;99.90
12223;DHT22;6174;49.058;8.524;2023-11-19T19:31:50;14.00;99.90
12223;DHT22;6174;49.058;8.524;2023-11-19T19:34:17;13.90;99.90
12223;DHT22;6174;49.058;8.524;2023-11-19T19:36:44;13.90;99.90
12223;DHT22;6174;49.058;8.524;2023-11-19T19:39:11;13.90;99.90
12223;DHT22;6174;49.058;8.524;2023-11-19T19:41:40;14.10;99.90
12223;DHT22;6174;49.058;8.524;2023-11-19T19:44:08;13.80;99.90
12223;DHT22;6174;49.058;8.524;2023-11-19T19:46:36;13.80;99.90
12223;DHT22;6174;49.058;8.524;2023-11-19T19:49:03;13.80;99.90
12223;DHT22;6174;49.058;8.524;2023-11-19T19:51:33;13.80;99.90
12223;DHT22;6174;49.058;8.524;2023-11-19T19:54:00;13.70;99.90
12223;DHT22;6174;49.058;8.524;2023-11-19T19:56:27;13.60;99.90
12223;DHT22;6174;49.058;8.524;2023-11-19T19:58:54;13.60;99.90
12223;DHT22;6174;49.058;8.524;2023-11-19T20:01:24;13.70;99.90
12223;DHT22;6174;49.058;8.524;2023-11-19T20:03:51;13.60;99.90
12223;DHT22;6174;49.058;8.524;2023-11-19T20:06:18;13.60;99.90
12223;DHT22;6174;49.058;8.524;2023-11-19T20:08:47;13.50;99.90
12223;DHT22;6174;49.058;8.524;2023-11-19T20:11:15;13.50;99.90
12223;DHT22;6174;49.058;8.524;2023-11-19T20:13:42;13.50;99.90
12223;DHT22;6174;49.058;8.524;2023-11-19T20:16:09;13.40;99.90
12223;DHT22;6174;49.058;8.524;2023-11-19T20:18:37;13.40;99.90
12223;DHT22;6174;49.058;8.524;2023-11-19T20:21:04;13.30;99.90
12223;DHT22;6174;49.058;8.524;2023-11-19T20:23:34;13.40;99.90
12223;DHT22;6174;49.058;8.524;2023-11-19T20:26:01;13.70;99.90
12223;DHT22;6174;49.058;8.524;2023-11-19T20:28:28;13.30;99.90
12223;DHT22;6174;49.058;8.524;2023-11-19T20:30:55;13.30;99.90
12223;DHT22;6174;49.058;8.524;2023-11-19T20:33:22;13.30;99.90
12223;DHT22;6174;49.058;8.524;2023-11-19T20:35:50;13.30;99.90
12223;DHT22;6174;49.058;8.524;2023-11-19T20:38:17;13.30;99.90
12223;DHT22;6174;49.058;8.524;2023-11-19T20:40:43;13.30;99.90
12223;DHT22;6174;49.058;8.524;2023-11-19T20:43:10;13.30;99.90
12223;DHT22;6174;49.058;8.524;2023-11-19T20:45:37;13.40;99.90
12223;DHT22;6174;49.058;8.524;2023-11-19T20:48:05;13.30;99.90
12223;DHT22;6174;49.058;8.524;2023-11-19T20:50:31;13.30;99.90
12223;DHT22;6174;49.058;8.524;2023-11-19T20:53:00;13.30;99.90
12223;DHT22;6174;49.058;8.524;2023-11-19T20:55:28;13.20;99.90
12223;DHT22;6174;49.058;8.524;2023-11-19T20:57:54;13.30;99.90
12223;DHT22;6174;49.058;8.524;2023-11-19T21:00:22;13.20;99.90
12223;DHT22;6174;49.058;8.524;2023-11-19T21:02:52;13.10;99.90
12223;DHT22;6174;49.058;8.524;2023-11-19T21:05:20;13.10;99.90
12223;DHT22;6174;49.058;8.524;2023-11-19T21:07:47;13.20;99.90
12223;DHT22;6174;49.058;8.524;2023-11-19T21:10:15;13.20;99.90
12223;DHT22;6174;49.058;8.524;2023-11-19T21:12:45;13.20;99.90
12223;DHT22;6174;49.058;8.524;2023-11-19T21:15:15;13.10;99.90
12223;DHT22;6174;49.058;8.524;2023-11-19T21:17:42;13.20;99.90
12223;DHT22;6174;49.058;8.524;2023-11-19T21:20:10;13.30;99.90
12223;DHT22;6174;49.058;8.524;2023-11-19T21:22:37;13.30;99.90
12223;DHT22;6174;49.058;8.524;2023-11-19T21:25:04;13.30;99.90
12223;DHT22;6174;49.058;8.524;2023-11-19T21:27:33;13.40;99.90
12223;DHT22;6174;49.058;8.524;2023-11-19T21:30:00;13.40;99.90
12223;DHT22;6174;49.058;8.524;2023-11-19T21:32:30;13.40;99.90
12223;DHT22;6174;49.058;8.524;2023-11-19T21:34:57;13.40;99.90
12223;DHT22;6174;49.058;8.524;2023-11-19T21:37:26;13.50;99.90
12223;DHT22;6174;49.058;8.524;2023-11-19T21:39:52;13.50;99.90
12223;DHT22;6174;49.058;8.524;2023-11-19T21:42:19;13.50;99.90
12223;DHT22;6174;49.058;8.524;2023-11-19T21:44:47;13.50;99.90
12223;DHT22;6174;49.058;8.524;2023-11-19T21:47:14;13.50;99.90
12223;DHT22;6174;49.058;8.524;2023-11-19T21:49:41;13.60;99.90
12223;DHT22;6174;49.058;8.524;2023-11-19T21:52:08;13.60;99.90
12223;DHT22;6174;49.058;8.524;2023-11-19T21:54:36;13.50;99.90
12223;DHT22;6174;49.058;8.524;2023-11-19T21:57:03;13.50;99.90
12223;DHT22;6174;49.058;8.524;2023-11-19T21:59:30;13.70;99.90
12223;DHT22;6174;49.058;8.524;2023-11-19T22:01:58;13.40;99.90
12223;DHT22;6174;49.058;8.524;2023-11-19T22:04:25;13.50;99.90
12223;DHT22;6174;49.058;8.524;2023-11-19T22:06:53;13.40;99.90
12223;DHT22;6174;49.058;8.524;2023-11-19T22:09:20;13.50;99.90
12223;DHT22;6174;49.058;8.524;2023-11-19T22:11:47;13.40;99.90
12223;DHT22;6174;49.058;8.524;2023-11-19T22:14:14;13.60;99.90
12223;DHT22;6174;49.058;8.524;2023-11-19T22:16:41;13.40;99.90
12223;DHT22;6174;49.058;8.524;2023-11-19T22:19:09;13.40;99.90
12223;DHT22;6174;49.058;8.524;2023-11-19T22:21:36;13.40;99.90
12223;DHT22;6174;49.058;8.524;2023-11-19T22:24:05;13.40;99.90
12223;DHT22;6174;49.058;8.524;2023-11-19T22:26:34;13.40;99.90
12223;DHT22;6174;49.058;8.524;2023-11-19T22:29:01;13.40;99.90
12223;DHT22;6174;49.058;8.524;2023-11-19T22:31:31;13.40;99.90
12223;DHT22;6174;49.058;8.524;2023-11-19T22:33:59;13.30;99.90
12223;DHT22;6174;49.058;8.524;2023-11-19T22:36:29;13.30;99.90
12223;DHT22;6174;49.058;8.524;2023-11-19T22:38:56;13.40;99.90
12223;DHT22;6174;49.058;8.524;2023-11-19T22:41:23;13.30;99.90
12223;DHT22;6174;49.058;8.524;2023-11-19T22:43:52;13.30;99.90
12223;DHT22;6174;49.058;8.524;2023-11-19T22:46:19;13.30;99.90
12223;DHT22;6174;49.058;8.524;2023-11-19T22:48:46;13.20;99.90
12223;DHT22;6174;49.058;8.524;2023-11-19T22:51:13;13.20;99.90
12223;DHT22;6174;49.058;8.524;2023-11-19T22:53:42;13.10;99.90
12223;DHT22;6174;49.058;8.524;2023-11-19T22:56:10;13.10;99.90
12223;DHT22;6174;49.058;8.524;2023-11-19T22:58:41;13.10;99.90
12223;DHT22;6174;49.058;8.524;2023-11-19T23:01:10;13.10;99.90
12223;DHT22;6174;49.058;8.524;2023-11-19T23:03:39;13.10;99.90
12223;DHT22;6174;49.058;8.524;2023-11-19T23:06:07;13.10;99.90
12223;DHT22;6174;49.058;8.524;2023-11-19T23:08:34;13.10;99.90